createdAt,value
2022-07-28T00:01:33.780Z,38.85
2022-07-28T00:04:02.711Z,38.79
2022-07-28T00:06:31.589Z,38.75
2022-07-28T00:09:00.559Z,38.45
2022-07-28T00:11:29.298Z,38.45
2022-07-28T00:13:58.025Z,38.00
2022-07-28T00:16:27.066Z,38.02
2022-07-28T00:18:55.908Z,38.18
2022-07-28T00:21:24.688Z,38.62
2022-07-28T00:23:53.589Z,38.56
2022-07-28T00:26:23.718Z,38.37
2022-07-28T00:28:52.388Z,38.25
2022-07-28T00:31:21.501Z,37.97
2022-07-28T00:33:50.508Z,37.80
2022-07-28T00:36:19.202Z,38.03
2022-07-28T00:38:53.961Z,37.82
2022-07-28T00:41:23.558Z,37.91
2022-07-28T00:43:52.828Z,38.10
2022-07-28T00:46:24.747Z,38.00
2022-07-28T00:48:57.415Z,37.92
2022-07-28T00:51:27.045Z,37.88
2022-07-28T00:53:56.295Z,38.10
2022-07-28T00:56:24.995Z,38.01
2022-07-28T00:58:53.925Z,37.36
2022-07-28T01:01:23.186Z,37.91
2022-07-28T01:03:55.985Z,37.78
2022-07-28T01:06:56.006Z,37.96
2022-07-28T01:09:45.605Z,38.02
2022-07-28T01:12:42.217Z,37.84
2022-07-28T01:15:25.969Z,37.52
2022-07-28T01:18:21.279Z,37.22
2022-07-28T01:21:04.357Z,37.94
2022-07-28T01:23:33.243Z,37.52
2022-07-28T01:26:26.997Z,38.01
2022-07-28T01:29:37.263Z,37.73
2022-07-28T01:32:11.339Z,37.90
2022-07-28T01:35:01.697Z,38.31
2022-07-28T01:37:33.236Z,38.01
2022-07-28T01:40:05.147Z,38.60
2022-07-28T01:42:38.286Z,38.22
2022-07-28T01:45:09.007Z,38.04
2022-07-28T01:47:37.685Z,38.40
2022-07-28T01:50:08.898Z,38.22
2022-07-28T01:52:39.259Z,38.55
2022-07-28T01:55:09.306Z,38.42
2022-07-28T01:57:38.177Z,38.53
2022-07-28T02:00:14.416Z,38.38
2022-07-28T02:02:44.776Z,38.60
2022-07-28T02:05:16.722Z,39.79
2022-07-28T02:07:48.055Z,40.21
2022-07-28T02:10:18.018Z,40.42
2022-07-28T02:12:48.195Z,39.77
2022-07-28T02:15:17.080Z,40.36
2022-07-28T02:17:46.748Z,40.09
2022-07-28T02:20:15.726Z,40.14
2022-07-28T02:22:44.659Z,40.31
2022-07-28T02:25:21.726Z,40.41
2022-07-28T02:28:02.486Z,40.28
2022-07-28T02:30:48.849Z,40.28
2022-07-28T02:33:58.363Z,40.83
2022-07-28T02:36:45.445Z,41.18
2022-07-28T02:39:22.815Z,41.37
2022-07-28T02:41:59.296Z,41.62
2022-07-28T02:44:31.137Z,41.60
2022-07-28T02:47:00.074Z,41.75
2022-07-28T02:49:33.355Z,41.83
2022-07-28T02:52:03.449Z,41.86
2022-07-28T02:54:33.365Z,41.74
2022-07-28T02:57:02.178Z,41.96
2022-07-28T02:59:31.266Z,42.03
2022-07-28T03:02:00.061Z,42.07
2022-07-28T03:04:47.314Z,42.22
2022-07-28T03:07:16.396Z,42.03
2022-07-28T03:09:46.775Z,42.44
2022-07-28T03:12:15.586Z,42.08
2022-07-28T03:14:44.475Z,42.33
2022-07-28T03:17:13.178Z,42.67
2022-07-28T03:19:42.136Z,42.46
2022-07-28T03:22:11.956Z,42.63
2022-07-28T03:24:48.745Z,42.66
2022-07-28T03:27:26.044Z,42.69
2022-07-28T03:30:10.056Z,42.63
2022-07-28T03:32:46.616Z,42.80
2022-07-28T03:35:17.381Z,43.06
2022-07-28T03:38:08.000Z,42.97
2022-07-28T03:40:37.931Z,42.99
2022-07-28T03:43:08.591Z,42.95
2022-07-28T03:45:40.967Z,42.93
2022-07-28T03:48:10.412Z,42.73
2022-07-28T03:50:39.119Z,42.86
2022-07-28T03:53:22.420Z,43.18
2022-07-28T03:55:51.533Z,43.22
2022-07-28T03:58:26.073Z,43.51
2022-07-28T04:00:59.013Z,43.13
2022-07-28T04:03:37.646Z,43.12
2022-07-28T04:06:13.484Z,43.57
2022-07-28T04:08:42.892Z,43.78
2022-07-28T04:11:11.791Z,43.86
2022-07-28T04:13:40.703Z,44.22
2022-07-28T04:16:09.539Z,44.54
2022-07-28T04:18:39.469Z,45.71
2022-07-28T04:21:08.628Z,46.76
2022-07-28T04:23:37.444Z,47.00
2022-07-28T04:26:06.280Z,47.40
2022-07-28T04:28:35.331Z,45.92
2022-07-28T04:31:04.221Z,44.87
2022-07-28T04:33:33.118Z,44.47
2022-07-28T04:36:02.670Z,45.79
2022-07-28T04:38:31.351Z,45.52
2022-07-28T04:41:00.000Z,45.13
2022-07-28T04:43:28.941Z,44.67
2022-07-28T04:45:57.683Z,44.39
2022-07-28T04:48:27.001Z,44.36
2022-07-28T04:50:57.701Z,45.39
2022-07-28T04:53:26.439Z,45.73
2022-07-28T04:55:57.569Z,45.57
2022-07-28T04:58:27.983Z,45.31
2022-07-28T05:00:59.928Z,44.65
2022-07-28T05:03:34.126Z,44.44
2022-07-28T05:06:05.545Z,44.14
2022-07-28T05:08:34.512Z,44.73
2022-07-28T05:11:03.153Z,43.75
2022-07-28T05:13:34.067Z,42.49
2022-07-28T05:16:03.913Z,41.22
2022-07-28T05:18:32.722Z,40.95
2022-07-28T05:21:01.480Z,40.38
2022-07-28T05:23:31.004Z,39.89
2022-07-28T05:25:59.900Z,39.66
2022-07-28T05:28:28.679Z,40.10
2022-07-28T05:30:57.671Z,39.45
2022-07-28T05:33:30.175Z,39.49
2022-07-28T05:36:01.850Z,39.69
2022-07-28T05:38:31.661Z,39.10
2022-07-28T05:41:00.551Z,38.88
2022-07-28T05:43:29.514Z,39.05
2022-07-28T05:45:58.460Z,38.32
2022-07-28T05:48:27.213Z,38.49
2022-07-28T05:50:56.262Z,38.13
2022-07-28T05:53:25.123Z,38.07
2022-07-28T05:56:00.706Z,38.00
2022-07-28T05:58:31.439Z,38.01
2022-07-28T06:01:01.787Z,38.51
2022-07-28T06:03:41.490Z,38.53
2022-07-28T06:06:14.837Z,38.26
2022-07-28T06:08:47.003Z,38.52
2022-07-28T06:11:22.004Z,38.36
2022-07-28T06:13:52.995Z,38.43
2022-07-28T06:16:23.544Z,38.51
2022-07-28T06:18:53.134Z,37.96
2022-07-28T06:21:24.635Z,37.87
2022-07-28T06:23:53.299Z,37.44
2022-07-28T06:26:23.373Z,37.67
2022-07-28T06:28:52.937Z,37.49
2022-07-28T06:31:21.560Z,37.05
2022-07-28T06:33:51.062Z,37.17
2022-07-28T06:36:19.820Z,37.01
2022-07-28T06:38:49.251Z,37.18
2022-07-28T06:41:18.312Z,36.55
2022-07-28T06:43:47.077Z,36.88
2022-07-28T06:46:18.994Z,36.36
2022-07-28T06:48:48.136Z,36.83
2022-07-28T06:51:19.471Z,36.37
2022-07-28T06:53:49.492Z,36.85
2022-07-28T06:56:21.387Z,36.74
2022-07-28T06:58:50.525Z,36.33
2022-07-28T07:01:19.283Z,36.40
2022-07-28T07:03:48.363Z,36.29
2022-07-28T07:06:17.324Z,36.22
2022-07-28T07:08:47.452Z,36.43
2022-07-28T07:11:16.473Z,36.07
2022-07-28T07:13:45.192Z,36.10
2022-07-28T07:16:13.934Z,35.96
2022-07-28T07:18:42.873Z,35.83
2022-07-28T07:21:11.732Z,36.12
2022-07-28T07:23:40.461Z,35.89
2022-07-28T07:26:09.533Z,36.06
2022-07-28T07:28:39.110Z,36.03
2022-07-28T07:31:07.947Z,36.00
2022-07-28T07:33:37.061Z,35.78
2022-07-28T07:36:06.286Z,35.89
2022-07-28T07:38:35.242Z,35.75
2022-07-28T07:41:04.552Z,35.56
2022-07-28T07:43:33.212Z,35.44
2022-07-28T07:46:01.941Z,35.45
2022-07-28T07:48:30.932Z,35.49
2022-07-28T07:50:59.707Z,35.46
2022-07-28T07:53:28.431Z,35.81
2022-07-28T07:55:57.852Z,36.00
2022-07-28T07:58:26.791Z,35.84
2022-07-28T08:00:56.231Z,35.79
2022-07-28T08:03:26.453Z,35.60
2022-07-28T08:05:57.474Z,36.00
2022-07-28T08:08:26.603Z,35.88
2022-07-28T08:10:55.285Z,35.74
2022-07-28T08:13:24.114Z,35.63
2022-07-28T08:15:53.104Z,35.59
2022-07-28T08:18:21.963Z,35.57
2022-07-28T08:20:50.722Z,35.20
2022-07-28T08:23:24.287Z,35.29
2022-07-28T08:25:56.003Z,35.40
2022-07-28T08:28:24.916Z,35.19
2022-07-28T08:30:53.787Z,35.53
2022-07-28T08:33:22.607Z,35.24
2022-07-28T08:35:51.723Z,35.01
2022-07-28T08:38:20.602Z,35.35
2022-07-28T08:40:50.902Z,35.02
2022-07-28T08:43:36.799Z,34.92
2022-07-28T08:46:06.957Z,35.38
2022-07-28T08:48:38.432Z,35.44
2022-07-28T08:51:12.163Z,35.46
2022-07-28T08:53:42.010Z,35.32
2022-07-28T08:56:16.741Z,35.15
2022-07-28T08:58:45.726Z,35.65
2022-07-28T09:01:14.423Z,35.59
2022-07-28T09:03:43.201Z,35.03
2022-07-28T09:06:12.112Z,35.37
2022-07-28T09:08:40.751Z,35.36
2022-07-28T09:11:12.684Z,34.92
2022-07-28T09:13:41.325Z,34.87
2022-07-28T09:16:10.243Z,34.79
2022-07-28T09:18:39.218Z,34.94
2022-07-28T09:21:07.952Z,34.83
2022-07-28T09:23:48.174Z,34.75
2022-07-28T09:26:18.189Z,34.44
2022-07-28T09:28:52.619Z,34.77
2022-07-28T09:31:23.284Z,34.33
2022-07-28T09:34:02.266Z,34.49
2022-07-28T09:36:39.101Z,34.39
2022-07-28T09:39:08.375Z,33.92
2022-07-28T09:41:55.648Z,34.08
2022-07-28T09:44:26.605Z,33.83
2022-07-28T09:46:56.769Z,34.03
2022-07-28T09:49:43.439Z,34.06
2022-07-28T09:52:13.770Z,33.74
2022-07-28T09:55:10.612Z,33.70
2022-07-28T09:57:42.110Z,34.09
2022-07-28T10:00:25.856Z,33.83
2022-07-28T10:02:56.897Z,34.27
2022-07-28T10:05:41.156Z,34.11
2022-07-28T10:08:10.141Z,34.12
2022-07-28T10:10:38.793Z,34.18
2022-07-28T10:13:07.611Z,33.82
2022-07-28T10:15:55.122Z,33.93
2022-07-28T10:18:23.991Z,33.89
2022-07-28T10:20:52.895Z,33.88
2022-07-28T10:23:21.675Z,33.89
2022-07-28T10:25:50.305Z,33.86
2022-07-28T10:28:19.564Z,33.47
2022-07-28T10:30:48.412Z,33.60
2022-07-28T10:33:18.551Z,33.39
2022-07-28T10:35:54.509Z,32.97
2022-07-28T10:38:25.505Z,33.15
2022-07-28T10:40:54.441Z,33.31
2022-07-28T10:43:24.202Z,33.03
2022-07-28T10:46:05.590Z,32.34
2022-07-28T10:48:39.842Z,32.83
2022-07-28T10:51:15.820Z,32.54
2022-07-28T10:53:53.105Z,33.01
2022-07-28T10:56:58.985Z,32.57
2022-07-28T10:59:45.884Z,32.93
2022-07-28T11:03:01.074Z,32.66
2022-07-28T11:05:39.845Z,32.44
2022-07-28T11:08:18.693Z,32.13
2022-07-28T11:10:56.249Z,32.86
2022-07-28T11:13:32.989Z,32.70
2022-07-28T11:16:14.385Z,32.76
2022-07-28T11:19:42.003Z,32.68
2022-07-28T11:22:28.592Z,32.33
2022-07-28T11:25:20.668Z,32.45
2022-07-28T11:27:51.120Z,32.32
2022-07-28T11:30:26.083Z,32.35
2022-07-28T11:32:59.192Z,32.15
2022-07-28T11:35:33.904Z,31.82
2022-07-28T11:38:02.567Z,31.90
2022-07-28T11:40:45.153Z,31.89
2022-07-28T11:43:36.714Z,31.83
2022-07-28T11:46:11.269Z,31.62
2022-07-28T11:48:45.329Z,31.27
2022-07-28T11:51:14.792Z,31.85
2022-07-28T11:53:48.814Z,31.72
2022-07-28T11:56:36.612Z,31.78
2022-07-28T11:59:07.091Z,32.03
2022-07-28T12:01:38.329Z,31.92
2022-07-28T12:04:13.619Z,32.02
2022-07-28T12:06:43.367Z,31.84
2022-07-28T12:09:23.589Z,32.63
2022-07-28T12:11:56.339Z,34.12
2022-07-28T12:14:29.594Z,34.24
2022-07-28T12:16:58.499Z,33.67
2022-07-28T12:19:32.919Z,33.55
2022-07-28T12:22:02.122Z,33.81
2022-07-28T12:24:45.110Z,34.32
2022-07-28T12:27:16.559Z,34.58
2022-07-28T12:29:57.102Z,34.15
2022-07-28T12:32:33.502Z,33.57
2022-07-28T12:35:03.232Z,33.64
2022-07-28T12:37:32.113Z,33.70
2022-07-28T12:40:02.775Z,33.91
2022-07-28T12:42:32.794Z,33.56
2022-07-28T12:45:07.951Z,33.84
2022-07-28T12:47:36.831Z,33.78
2022-07-28T12:50:18.061Z,33.71
2022-07-28T12:53:05.365Z,33.80
2022-07-28T12:55:34.486Z,33.75
2022-07-28T12:58:03.465Z,34.01
2022-07-28T13:00:35.588Z,34.16
2022-07-28T13:03:28.517Z,33.80
2022-07-28T13:06:03.786Z,33.46
2022-07-28T13:08:47.352Z,33.60
2022-07-28T13:11:42.018Z,33.63
2022-07-28T13:14:06.103Z,34.01
2022-07-28T13:16:34.878Z,33.88
2022-07-28T13:19:05.859Z,34.23
2022-07-28T13:21:58.347Z,33.81
2022-07-28T13:24:29.924Z,34.26
2022-07-28T13:26:59.739Z,34.12
2022-07-28T13:29:28.661Z,34.44
2022-07-28T13:31:57.355Z,34.59
2022-07-28T13:34:26.540Z,33.85
2022-07-28T13:36:57.403Z,34.21
2022-07-28T13:39:26.061Z,34.04
2022-07-28T13:41:58.344Z,33.88
2022-07-28T13:44:28.498Z,34.08
2022-07-28T13:46:58.255Z,33.48
2022-07-28T13:49:32.397Z,33.36
2022-07-28T13:52:02.050Z,33.50
2022-07-28T13:54:30.720Z,34.40
2022-07-28T13:57:12.469Z,34.24
2022-07-28T13:59:43.856Z,34.42
2022-07-28T14:02:15.710Z,34.91
2022-07-28T14:04:45.969Z,35.49
2022-07-28T14:07:21.264Z,35.55
2022-07-28T14:09:51.080Z,34.99
2022-07-28T14:12:19.709Z,34.95
2022-07-28T14:14:49.008Z,34.93
2022-07-28T14:17:44.068Z,34.54
2022-07-28T14:20:14.328Z,34.64
2022-07-28T14:22:46.922Z,34.98
2022-07-28T14:25:21.170Z,34.50
2022-07-28T14:27:52.339Z,34.85
2022-07-28T14:30:22.332Z,35.44
2022-07-28T14:32:51.001Z,35.71
2022-07-28T14:35:20.244Z,35.98
2022-07-28T14:40:39.722Z,35.34
2022-07-28T14:43:08.770Z,35.46
2022-07-28T14:45:51.358Z,35.42
2022-07-28T14:48:26.534Z,35.92
2022-07-28T14:50:57.282Z,35.65
2022-07-28T14:53:28.085Z,35.79
2022-07-28T14:55:57.321Z,35.96
2022-07-28T14:58:26.183Z,35.80
2022-07-28T15:00:56.154Z,35.68
2022-07-28T15:03:35.744Z,35.88
2022-07-28T15:06:05.072Z,36.25
2022-07-28T15:08:34.173Z,35.58
2022-07-28T15:11:02.807Z,35.59
2022-07-28T15:13:31.435Z,35.56
2022-07-28T15:16:00.763Z,36.10
2022-07-28T15:18:29.418Z,36.08
2022-07-28T15:20:58.214Z,35.90
2022-07-28T15:23:27.726Z,36.17
2022-07-28T15:25:56.430Z,36.15
2022-07-28T15:28:25.117Z,36.19
2022-07-28T15:30:54.736Z,35.81
2022-07-28T15:33:25.935Z,35.65
2022-07-28T15:35:57.553Z,35.62
2022-07-28T15:38:29.577Z,36.01
2022-07-28T15:41:01.109Z,35.61
2022-07-28T15:43:29.885Z,35.64
2022-07-28T15:45:58.694Z,35.71
2022-07-28T15:48:27.504Z,35.65
2022-07-28T15:50:56.045Z,35.83
2022-07-28T15:53:25.295Z,35.81
2022-07-28T15:55:54.330Z,35.40
2022-07-28T15:58:26.765Z,35.25
2022-07-28T16:00:55.645Z,35.27
2022-07-28T16:03:24.568Z,35.41
2022-07-28T16:05:55.084Z,35.40
2022-07-28T16:08:24.100Z,35.33
2022-07-28T16:10:54.400Z,35.29
2022-07-28T16:13:36.090Z,35.68
2022-07-28T16:16:08.548Z,35.47
2022-07-28T16:18:38.425Z,35.55
2022-07-28T16:21:07.897Z,35.65
2022-07-28T16:23:36.834Z,35.69
2022-07-28T16:26:08.312Z,36.02
2022-07-28T16:28:37.304Z,36.02
2022-07-28T16:31:06.300Z,36.08
2022-07-28T16:33:35.198Z,36.16
2022-07-28T16:36:04.410Z,36.38
2022-07-28T16:38:33.141Z,36.59
2022-07-28T16:41:01.716Z,36.78
2022-07-28T16:43:30.815Z,36.79
2022-07-28T16:45:59.572Z,36.81
2022-07-28T16:48:28.282Z,36.52
2022-07-28T16:50:58.079Z,36.69
2022-07-28T16:53:26.754Z,36.68
2022-07-28T16:55:55.484Z,35.77
2022-07-28T16:58:26.405Z,35.98
2022-07-28T17:00:55.174Z,36.28
2022-07-28T17:03:24.555Z,36.49
2022-07-28T17:05:53.894Z,36.21
2022-07-28T17:08:22.625Z,36.17
2022-07-28T17:10:51.344Z,35.44
2022-07-28T17:13:21.601Z,35.97
2022-07-28T17:15:50.390Z,36.52
2022-07-28T17:18:19.021Z,36.75
2022-07-28T17:20:48.055Z,36.68
2022-07-28T17:23:16.665Z,36.47
2022-07-28T17:26:16.201Z,36.02
2022-07-28T17:28:35.100Z,35.72
2022-07-28T17:31:03.851Z,35.44
2022-07-28T17:33:33.315Z,35.21
2022-07-28T17:36:02.385Z,34.53
2022-07-28T17:38:33.432Z,34.44
2022-07-28T17:41:04.476Z,34.74
2022-07-28T17:43:33.744Z,34.84
2022-07-28T17:46:08.283Z,34.76
2022-07-28T17:48:40.076Z,34.61
2022-07-28T17:51:08.932Z,34.59
2022-07-28T17:53:39.553Z,34.24
2022-07-28T17:56:09.171Z,34.61
2022-07-28T17:58:38.940Z,34.28
2022-07-28T18:01:12.081Z,34.50
2022-07-28T18:03:56.873Z,34.71
2022-07-28T18:06:32.411Z,35.11
2022-07-28T18:09:07.182Z,35.31
2022-07-28T18:11:56.862Z,35.17
2022-07-28T18:14:27.966Z,35.25
2022-07-28T18:16:57.114Z,35.46
2022-07-28T18:19:27.114Z,35.14
2022-07-28T18:21:56.286Z,35.40
2022-07-28T18:24:24.954Z,34.98
2022-07-28T18:26:53.871Z,35.18
2022-07-28T18:29:22.958Z,35.16
2022-07-28T18:31:52.257Z,35.59
2022-07-28T18:34:24.654Z,35.75
2022-07-28T18:36:54.245Z,35.92
2022-07-28T18:39:23.064Z,36.24
2022-07-28T18:41:56.315Z,36.60
2022-07-28T18:44:25.247Z,36.35
2022-07-28T18:46:54.066Z,36.67
2022-07-28T18:49:22.842Z,37.09
2022-07-28T18:51:53.107Z,37.02
2022-07-28T18:54:27.525Z,37.38
2022-07-28T18:56:57.338Z,37.39
2022-07-28T18:59:25.955Z,37.60
2022-07-28T19:15:45.528Z,38.40
2022-07-28T19:27:31.528Z,39.25
2022-07-28T19:30:00.433Z,39.95
2022-07-28T19:32:29.258Z,39.68
2022-07-28T19:34:58.088Z,40.23
2022-07-28T19:37:28.124Z,40.03
2022-07-28T19:39:56.774Z,39.78
2022-07-28T19:42:25.416Z,39.75
2022-07-28T19:44:56.043Z,39.71
2022-07-28T19:47:25.086Z,40.15
2022-07-28T19:49:53.941Z,39.88
2022-07-28T19:52:24.031Z,40.58
2022-07-28T19:54:53.180Z,40.48
2022-07-28T19:57:25.208Z,40.96
2022-07-28T19:59:54.022Z,41.63
2022-07-28T20:02:23.013Z,41.50
2022-07-28T20:04:52.094Z,41.50
2022-07-28T20:07:20.767Z,41.43
2022-07-28T20:09:49.402Z,41.37
2022-07-28T20:12:19.656Z,41.14
2022-07-28T20:14:48.306Z,40.55
2022-07-28T20:17:36.989Z,40.56
2022-07-28T20:20:12.080Z,40.16
2022-07-28T20:22:41.739Z,40.31
2022-07-28T20:25:11.486Z,40.28
2022-07-28T20:27:41.467Z,40.43
2022-07-28T20:30:11.275Z,39.94
2022-07-28T20:32:42.396Z,40.04
2022-07-28T20:35:11.837Z,39.97
2022-07-28T20:37:40.629Z,40.32
2022-07-28T20:40:10.096Z,40.47
2022-07-28T20:42:38.832Z,40.25
2022-07-28T20:45:08.130Z,39.84
2022-07-28T20:47:37.029Z,39.93
2022-07-28T20:50:06.790Z,39.77
2022-07-28T20:52:35.609Z,39.46
2022-07-28T20:55:04.718Z,38.97
2022-07-28T20:57:33.651Z,39.10
2022-07-28T21:00:03.653Z,38.77
2022-07-28T21:02:32.575Z,38.86
2022-07-28T21:05:01.155Z,39.04
2022-07-28T21:07:59.999Z,38.89
2022-07-28T21:10:18.876Z,38.86
2022-07-28T21:12:48.418Z,38.55
2022-07-28T21:15:16.877Z,38.89
2022-07-28T21:17:45.537Z,39.22
2022-07-28T21:20:14.625Z,39.22
2022-07-28T21:22:43.209Z,39.19
2022-07-28T21:25:11.873Z,38.91
2022-07-28T21:27:59.471Z,39.33
2022-07-28T21:30:28.431Z,39.57
2022-07-28T21:32:57.597Z,38.94
2022-07-28T21:35:26.297Z,39.15
2022-07-28T21:37:54.967Z,39.02
2022-07-28T21:40:24.407Z,39.26
2022-07-28T21:42:53.037Z,39.20
2022-07-28T21:45:21.747Z,39.30
2022-07-28T21:47:50.660Z,39.24
2022-07-28T21:50:19.357Z,39.37
2022-07-28T21:52:48.101Z,39.16
2022-07-28T21:55:17.092Z,39.28
2022-07-28T21:57:46.181Z,39.37
2022-07-28T22:00:17.418Z,39.43
2022-07-28T22:02:46.382Z,40.01
2022-07-28T22:05:15.714Z,40.03
2022-07-28T22:07:44.385Z,40.37
2022-07-28T22:10:13.294Z,40.43
2022-07-28T22:12:43.543Z,40.50
2022-07-28T22:15:12.398Z,38.42
2022-07-28T22:17:41.642Z,37.96
2022-07-28T22:20:11.359Z,37.85
2022-07-28T22:22:40.322Z,38.21
2022-07-28T22:25:10.038Z,39.67
2022-07-28T22:27:38.931Z,41.43
2022-07-28T22:30:08.511Z,41.94
2022-07-28T22:32:37.402Z,42.55
2022-07-28T22:35:07.264Z,43.31
2022-07-28T22:37:36.062Z,43.73
2022-07-28T22:40:06.132Z,44.26
2022-07-28T22:42:34.783Z,44.38
2022-07-28T22:45:04.382Z,43.91
2022-07-28T22:47:33.503Z,42.68
2022-07-28T22:50:02.174Z,43.02
2022-07-28T22:52:30.872Z,43.42
2022-07-28T22:57:45.525Z,43.58
2022-07-28T23:00:15.571Z,43.39
2022-07-28T23:02:44.331Z,43.65
2022-07-28T23:05:13.972Z,43.63
2022-07-28T23:07:50.916Z,43.87
2022-07-28T23:10:25.694Z,44.64
2022-07-28T23:12:58.391Z,44.19
2022-07-28T23:15:40.763Z,45.17
2022-07-28T23:18:11.544Z,44.66
2022-07-28T23:20:40.508Z,44.20
2022-07-28T23:23:09.776Z,44.29
2022-07-28T23:25:41.208Z,44.87
2022-07-28T23:28:09.922Z,44.63
2022-07-28T23:30:38.725Z,44.82
2022-07-28T23:33:07.886Z,45.84
2022-07-28T23:35:36.629Z,45.34
2022-07-28T23:38:05.403Z,44.76
2022-07-28T23:40:34.463Z,44.45
2022-07-28T23:43:03.115Z,44.27
2022-07-28T23:45:31.710Z,45.34
2022-07-28T23:48:00.605Z,45.55
2022-07-28T23:50:29.216Z,45.78
2022-07-28T23:53:00.384Z,46.02
2022-07-28T23:55:29.277Z,46.12
2022-07-28T23:57:57.891Z,46.01
